Time;durP1;ratioP1;P1;durP2;ratioP2;P2;SDS_P1;SDS_P2;PMS_P1;PMS_P2;Temp;Humidity;BMP_temperature;BMP_pressure;BME280_temperature;BME280_humidity;BME280_pressure;Samples;Min_cycle;Max_cycle;Signal;HPM_P1;HPM_P2
2022/10/12 00:00:50;;;;;;;;;;;;;;;16.57;57.56;101534.53;5077727;28;877;-53
2022/10/12 00:03:16;;;;;;;;;;;;;;;16.43;57.38;101529.38;5077723;28;1182;-53
2022/10/12 00:05:41;;;;;;;;;;;;;;;16.27;57.26;101530.28;5077925;28;1974;-53
2022/10/12 00:08:07;;;;;;;;;;;;;;;16.92;57.24;101525.91;5065694;28;1146;-54
2022/10/12 00:10:32;;;;;;;;;;;;;;;17.28;56.43;101536.47;5057490;28;1134;-54
2022/10/12 00:12:58;;;;;;;;;;;;;;;16.64;57.58;101528.84;5067705;28;965;-52
2022/10/12 00:15:23;;;;;;;;;;;;;;;16.45;57.50;101525.56;5077819;28;1138;-54
2022/10/12 00:17:49;;;;;;;;;;;;;;;16.35;57.44;101526.25;5073284;28;2574;-53
2022/10/12 00:20:14;;;;;;;;;;;;;;;16.20;57.18;101519.50;5063483;28;1158;-54
2022/10/12 00:22:40;;;;;;;;;;;;;;;17.50;56.15;101519.06;5077408;28;1233;-54
2022/10/12 00:25:05;;;;;;;;;;;;;;;16.95;57.19;101519.06;5077244;28;1902;-54
2022/10/12 00:27:31;;;;;;;;;;;;;;;16.57;57.50;101524.34;5077493;28;1162;-50
2022/10/12 00:29:56;;;;;;;;;;;;;;;16.40;57.56;101521.66;5077078;28;1241;-53
2022/10/12 00:32:22;;;;;;;;;;;;;;;16.26;57.22;101514.91;5075476;28;1150;-55
2022/10/12 00:34:47;;;;;;;;;;;;;;;16.17;57.17;101513.66;5057470;28;1201;-56
2022/10/12 00:37:12;;;;;;;;;;;;;;;17.28;56.76;101515.28;5071079;28;893;-51
2022/10/12 00:39:38;;;;;;;;;;;;;;;17.02;57.16;101514.19;5077030;28;999;-54
2022/10/12 00:42:03;;;;;;;;;;;;;;;16.61;57.58;101513.72;5077171;28;1162;-52
2022/10/12 00:44:45;;;;;;;;;;;;;;;16.39;57.52;101510.94;5073484;28;1905;-56
2022/10/12 00:47:17;;;;;;;;;;;;;;;16.21;57.35;101506.59;5058429;28;2263;-56
2022/10/12 00:49:44;;;;;;;;;;;;;;;16.13;57.20;101507.03;5076914;28;1095;-58
2022/10/12 00:52:10;;;;;;;;;;;;;;;17.52;56.21;101505.88;5076085;28;1155;-55
2022/10/12 00:54:36;;;;;;;;;;;;;;;16.84;57.63;101504.34;5058829;28;1218;-56
2022/10/12 00:57:02;;;;;;;;;;;;;;;16.53;57.61;101505.91;5059132;28;1159;-55
2022/10/12 00:59:30;;;;;;;;;;;;;;;16.33;57.45;101504.56;5076125;28;1123;-55
2022/10/12 01:01:56;;;;;;;;;;;;;;;16.23;57.51;101496.19;5076810;28;1087;-55
2022/10/12 01:04:21;;;;;;;;;;;;;;;17.43;56.46;101500.00;5076534;28;1971;-55
2022/10/12 01:06:47;;;;;;;;;;;;;;;16.96;57.14;101498.75;5062423;28;1197;-57
2022/10/12 01:09:13;;;;;;;;;;;;;;;16.59;57.55;101499.38;5076356;28;1243;-55
2022/10/12 01:11:38;;;;;;;;;;;;;;;16.39;57.72;101506.28;5076243;28;1173;-56
2022/10/12 01:14:03;;;;;;;;;;;;;;;16.21;57.75;101499.19;5076266;28;1138;-57
2022/10/12 01:16:35;;;;;;;;;;;;;;;16.23;57.54;101508.00;5076462;28;2423;-55
2022/10/12 01:19:21;;;;;;;;;;;;;;;17.58;56.08;101510.31;5058063;28;1153;-56
2022/10/12 01:21:54;;;;;;;;;;;;;;;16.76;57.64;101500.16;5034462;28;1170;-56
2022/10/12 01:24:32;;;;;;;;;;;;;;;16.48;57.42;101514.06;5069251;28;1972;-56
2022/10/12 01:27:02;;;;;;;;;;;;;;;16.28;57.49;101509.16;5069423;28;1147;-54
2022/10/12 01:29:36;;;;;;;;;;;;;;;16.25;57.72;101508.56;5062120;28;1099;-51
2022/10/12 01:32:02;;;;;;;;;;;;;;;17.67;55.82;101499.66;5076142;28;1103;-55
2022/10/12 01:34:40;;;;;;;;;;;;;;;16.82;57.69;101502.97;5057181;28;1170;-55
2022/10/12 01:37:05;;;;;;;;;;;;;;;16.47;57.85;101498.72;5050523;28;1578;-54
2022/10/12 01:39:36;;;;;;;;;;;;;;;16.36;57.56;101501.31;5076199;28;1194;-55
2022/10/12 01:42:06;;;;;;;;;;;;;;;17.07;57.21;101495.03;5076214;28;1130;-55
2022/10/12 01:44:32;;;;;;;;;;;;;;;17.33;56.64;101500.75;5060828;28;1961;-51
2022/10/12 01:46:57;;;;;;;;;;;;;;;16.77;57.36;101499.06;5076377;28;2481;-49
2022/10/12 01:49:26;;;;;;;;;;;;;;;16.49;57.81;101505.59;5073607;28;912;-51
2022/10/12 01:51:54;;;;;;;;;;;;;;;16.37;57.42;101500.22;5046245;28;1189;-51
2022/10/12 01:54:19;;;;;;;;;;;;;;;17.46;56.63;101507.75;5058077;28;1357;-54
2022/10/12 01:57:05;;;;;;;;;;;;;;;17.06;57.02;101509.03;5076132;28;1091;-55
2022/10/12 01:59:43;;;;;;;;;;;;;;;16.61;57.70;101516.44;5075804;28;1178;-55
2022/10/12 02:02:16;;;;;;;;;;;;;;;16.45;57.61;101514.59;5058353;28;1061;-56
2022/10/12 02:04:49;;;;;;;;;;;;;;;16.29;57.30;101511.66;5075884;28;1905;-44
2022/10/12 02:07:20;;;;;;;;;;;;;;;16.21;57.11;101510.16;5075898;28;1158;-50
2022/10/12 02:09:45;;;;;;;;;;;;;;;17.25;56.76;101524.06;5065893;28;1115;-52
2022/10/12 02:12:17;;;;;;;;;;;;;;;17.07;57.01;101519.75;5054082;28;1108;-50
2022/10/12 02:14:44;;;;;;;;;;;;;;;16.64;57.68;101518.69;5055485;28;1205;-51
2022/10/12 02:17:10;;;;;;;;;;;;;;;16.42;57.43;101516.78;5054108;28;1884;-49
2022/10/12 02:19:38;;;;;;;;;;;;;;;16.32;57.19;101516.63;5074652;28;1131;-47
2022/10/12 02:22:05;;;;;;;;;;;;;;;16.18;57.48;101518.91;5057519;28;1150;-44
2022/10/12 02:24:30;;;;;;;;;;;;;;;16.75;57.66;101517.72;5069062;28;1980;-49
2022/10/12 02:26:56;;;;;;;;;;;;;;;17.45;56.12;101520.66;5050952;28;1225;-50
2022/10/12 02:29:25;;;;;;;;;;;;;;;16.73;57.72;101525.41;5057792;28;1159;-52
2022/10/12 02:31:51;;;;;;;;;;;;;;;16.50;57.51;101522.91;5057287;28;1189;-47
2022/10/12 02:34:16;;;;;;;;;;;;;;;16.33;57.43;101518.28;5057726;28;1185;-49
2022/10/12 02:36:46;;;;;;;;;;;;;;;16.57;57.79;101524.34;5055111;28;1166;-49
2022/10/12 02:39:32;;;;;;;;;;;;;;;17.60;56.01;101524.66;5052933;28;1202;-46
2022/10/12 02:41:58;;;;;;;;;;;;;;;16.74;57.62;101529.78;5075881;28;1209;-55
2022/10/12 02:44:25;;;;;;;;;;;;;;;16.49;57.56;101529.47;5074253;28;1955;-55
2022/10/12 02:46:51;;;;;;;;;;;;;;;16.39;57.22;101528.25;5071596;28;1816;-56
2022/10/12 02:49:16;;;;;;;;;;;;;;;16.25;57.15;101530.50;5054319;28;1254;-53
2022/10/12 02:51:42;;;;;;;;;;;;;;;16.95;57.38;101524.56;5071456;28;1182;-54
2022/10/12 02:54:07;;;;;;;;;;;;;;;17.37;56.51;101534.88;5054781;28;1146;-54
2022/10/12 02:56:33;;;;;;;;;;;;;;;16.73;57.70;101538.28;5061475;28;1245;-54
2022/10/12 02:58:58;;;;;;;;;;;;;;;16.52;57.69;101535.28;5078906;28;1135;-53
2022/10/12 03:01:24;;;;;;;;;;;;;;;16.34;57.26;101528.19;5067125;28;1174;-54
2022/10/12 03:03:49;;;;;;;;;;;;;;;16.19;57.38;101525.22;5077153;28;1902;-54
2022/10/12 03:06:14;;;;;;;;;;;;;;;16.21;57.75;101536.78;5079221;28;1146;-53
2022/10/12 03:08:40;;;;;;;;;;;;;;;17.71;55.85;101537.41;5078670;28;1197;-54
2022/10/12 03:11:06;;;;;;;;;;;;;;;16.89;57.16;101531.09;5078610;28;1167;-54
2022/10/12 03:13:31;;;;;;;;;;;;;;;16.54;57.78;101535.03;5078288;28;1217;-53
2022/10/12 03:16:03;;;;;;;;;;;;;;;16.37;57.29;101530.41;5078957;28;1194;-54
2022/10/12 03:18:28;;;;;;;;;;;;;;;16.25;57.66;101526.94;5074658;28;2660;-54
2022/10/12 03:20:54;;;;;;;;;;;;;;;17.66;55.69;101528.28;5073264;28;1218;-53
2022/10/12 03:23:20;;;;;;;;;;;;;;;16.85;57.12;101524.44;5058476;28;1198;-48
2022/10/12 03:25:45;;;;;;;;;;;;;;;16.54;57.63;101524.88;5061943;28;1965;-52
2022/10/12 03:28:10;;;;;;;;;;;;;;;16.35;57.37;101523.53;5078315;28;1115;-54
2022/10/12 03:30:36;;;;;;;;;;;;;;;16.23;57.58;101518.16;5078569;28;1158;-54
2022/10/12 03:33:01;;;;;;;;;;;;;;;16.11;57.20;101529.22;5078353;28;1150;-54
2022/10/12 03:35:27;;;;;;;;;;;;;;;17.35;56.40;101526.06;5078131;28;1181;-53
2022/10/12 03:37:53;;;;;;;;;;;;;;;17.11;56.60;101522.81;5078488;28;1138;-53
2022/10/12 03:40:18;;;;;;;;;;;;;;;16.61;57.52;101519.19;5078507;28;1165;-51
2022/10/12 03:42:44;;;;;;;;;;;;;;;16.45;57.25;101526.38;5078294;28;1194;-50
2022/10/12 03:45:10;;;;;;;;;;;;;;;16.30;57.53;101523.44;5077977;28;1914;-52
2022/10/12 03:47:36;;;;;;;;;;;;;;;16.17;57.19;101527.38;5072758;28;2454;-55
2022/10/12 03:50:02;;;;;;;;;;;;;;;17.28;56.55;101534.53;5069797;28;1055;-54
2022/10/12 03:52:27;;;;;;;;;;;;;;;17.14;56.82;101535.19;5078220;28;1134;-57
2022/10/12 03:54:52;;;;;;;;;;;;;;;16.62;57.62;101540.09;5078475;28;1130;-56
2022/10/12 03:57:18;;;;;;;;;;;;;;;16.55;57.29;101539.41;5077561;28;1186;-58
2022/10/12 03:59:43;;;;;;;;;;;;;;;16.38;57.42;101542.22;5077282;28;1099;-57
2022/10/12 04:02:09;;;;;;;;;;;;;;;16.16;57.68;101547.66;5077578;28;1193;-56
2022/10/12 04:04:34;;;;;;;;;;;;;;;17.49;56.46;101533.88;5077838;28;1897;-59
2022/10/12 04:07:00;;;;;;;;;;;;;;;17.08;57.06;101537.91;5078179;28;1130;-58
2022/10/12 04:09:25;;;;;;;;;;;;;;;16.64;57.50;101546.13;5077598;28;1091;-58
2022/10/12 04:11:51;;;;;;;;;;;;;;;16.42;57.54;101538.75;5077124;28;1028;-59
2022/10/12 04:14:16;;;;;;;;;;;;;;;16.29;57.54;101533.59;5064529;28;937;-59
2022/10/12 04:16:41;;;;;;;;;;;;;;;16.79;57.63;101541.91;5074952;28;2309;-57
2022/10/12 04:19:09;;;;;;;;;;;;;;;17.28;56.49;101540.03;5057575;28;1087;-58
2022/10/12 04:21:34;;;;;;;;;;;;;;;16.67;57.50;101550.28;5039726;28;1115;-59
2022/10/12 04:24:00;;;;;;;;;;;;;;;16.42;57.70;101541.47;5059995;28;1972;-58
2022/10/12 04:26:26;;;;;;;;;;;;;;;16.26;57.42;101542.34;5067563;28;891;-58
2022/10/12 04:28:51;;;;;;;;;;;;;;;16.16;57.63;101548.50;5072126;28;1134;-58
2022/10/12 04:31:17;;;;;;;;;;;;;;;17.54;56.23;101548.50;5077186;28;1326;-58
2022/10/12 04:33:43;;;;;;;;;;;;;;;16.93;57.44;101538.56;5077280;28;1087;-57
2022/10/12 04:36:09;;;;;;;;;;;;;;;16.57;57.69;101537.28;5071816;28;1154;-58
2022/10/12 04:38:35;;;;;;;;;;;;;;;16.39;57.77;101533.72;5068003;28;989;-58
2022/10/12 04:41:00;;;;;;;;;;;;;;;16.25;57.46;101537.94;5077214;28;1198;-58
2022/10/12 04:43:26;;;;;;;;;;;;;;;16.16;57.34;101540.28;5077592;28;1228;-58
2022/10/12 04:45:55;;;;;;;;;;;;;;;17.55;56.21;101539.16;5077034;28;1914;-58
2022/10/12 04:48:20;;;;;;;;;;;;;;;16.91;57.43;101542.66;5060661;28;2666;-58
2022/10/12 04:50:46;;;;;;;;;;;;;;;16.49;57.98;101534.97;5073201;28;940;-56
2022/10/12 04:53:11;;;;;;;;;;;;;;;16.37;57.70;101538.66;5076615;28;1173;-55
2022/10/12 04:55:37;;;;;;;;;;;;;;;16.27;57.40;101537.69;5076946;28;1146;-55
2022/10/12 04:58:02;;;;;;;;;;;;;;;16.64;57.60;101535.16;5076920;28;1094;-55
2022/10/12 05:00:27;;;;;;;;;;;;;;;17.41;56.23;101544.28;5076428;28;1099;-55
2022/10/12 05:02:53;;;;;;;;;;;;;;;16.66;57.68;101551.38;5076590;28;903;-56
2022/10/12 05:05:18;;;;;;;;;;;;;;;16.48;57.70;101552.50;5076472;28;1980;-56
2022/10/12 05:07:44;;;;;;;;;;;;;;;16.29;57.96;101552.81;5068441;28;1185;-53
2022/10/12 05:10:10;;;;;;;;;;;;;;;16.20;57.63;101560.66;5056817;28;1119;-54
2022/10/12 05:12:36;;;;;;;;;;;;;;;17.01;57.26;101553.78;5055720;28;1126;-54
2022/10/12 05:15:01;;;;;;;;;;;;;;;17.22;56.73;101564.97;5069730;28;903;-53
2022/10/12 05:17:27;;;;;;;;;;;;;;;16.66;57.69;101565.94;5071992;28;2358;-54
2022/10/12 05:19:52;;;;;;;;;;;;;;;16.43;57.95;101567.81;5076217;28;1150;-54
2022/10/12 05:22:18;;;;;;;;;;;;;;;16.30;57.70;101559.97;5059435;28;1218;-54
2022/10/12 05:24:43;;;;;;;;;;;;;;;16.22;57.80;101572.19;5065520;28;1987;-54
2022/10/12 05:27:08;;;;;;;;;;;;;;;17.67;55.99;101572.00;5073565;28;898;-58
2022/10/12 05:29:34;;;;;;;;;;;;;;;16.85;57.45;101573.88;5076910;28;1165;-58
2022/10/12 05:31:59;;;;;;;;;;;;;;;16.57;57.52;101578.44;5076276;28;1126;-60
2022/10/12 05:34:25;;;;;;;;;;;;;;;16.34;57.83;101585.81;5076223;28;1166;-58
2022/10/12 05:36:50;;;;;;;;;;;;;;;16.32;58.11;101593.47;5076063;28;1225;-58
2022/10/12 05:39:16;;;;;;;;;;;;;;;17.62;54.51;101591.22;5075445;28;981;-57
2022/10/12 05:41:41;;;;;;;;;;;;;;;16.69;54.43;101609.38;5076539;28;1114;-57
2022/10/12 05:44:07;;;;;;;;;;;;;;;16.45;52.83;101605.19;5075976;28;1988;-55
2022/10/12 05:46:32;;;;;;;;;;;;;;;17.75;54.73;101603.69;5075824;28;2393;-57
2022/10/12 05:48:58;;;;;;;;;;;;;;;16.89;54.15;101603.34;5076201;28;1193;-56
2022/10/12 05:51:23;;;;;;;;;;;;;;;16.64;52.63;101609.28;5075306;28;1119;-54
2022/10/12 05:53:48;;;;;;;;;;;;;;;17.61;54.42;101608.78;5075960;28;1114;-56
2022/10/12 05:56:14;;;;;;;;;;;;;;;17.08;54.25;101617.59;5076064;28;1138;-56
2022/10/12 05:58:39;;;;;;;;;;;;;;;16.89;52.30;101619.00;5075936;28;1537;-56
2022/10/12 06:01:08;;;;;;;;;;;;;;;17.56;53.45;101614.28;5075937;28;1219;-57
2022/10/12 06:03:34;;;;;;;;;;;;;;;16.91;52.91;101620.41;5071871;28;953;-57
2022/10/12 06:05:59;;;;;;;;;;;;;;;18.07;53.46;101625.75;5055833;28;1910;-57
2022/10/12 06:08:25;;;;;;;;;;;;;;;17.90;53.61;101619.53;5055650;28;1146;-59
2022/10/12 06:10:50;;;;;;;;;;;;;;;17.28;52.59;101621.66;5055241;28;1103;-57
2022/10/12 06:13:16;;;;;;;;;;;;;;;16.92;51.23;101624.81;5055581;28;1194;-55
2022/10/12 06:15:45;;;;;;;;;;;;;;;17.03;50.86;101628.50;5073833;28;1150;-57
2022/10/12 06:18:11;;;;;;;;;;;;;;;18.20;53.15;101626.38;5071309;28;2451;-60
2022/10/12 06:20:36;;;;;;;;;;;;;;;17.34;52.70;101628.88;5075911;28;1158;-57
2022/10/12 06:23:02;;;;;;;;;;;;;;;17.08;51.23;101628.59;5077114;28;1171;-56
2022/10/12 06:25:27;;;;;;;;;;;;;;;16.97;50.16;101625.94;5079839;28;1984;-57
2022/10/12 06:27:53;;;;;;;;;;;;;;;17.11;50.97;101632.75;5079681;28;953;-57
2022/10/12 06:30:18;;;;;;;;;;;;;;;17.61;52.35;101628.06;5079529;28;1146;-57
2022/10/12 06:32:44;;;;;;;;;;;;;;;17.15;51.33;101635.78;5079474;28;1162;-56
2022/10/12 06:35:09;;;;;;;;;;;;;;;17.37;51.69;101636.59;5079573;28;1142;-57
2022/10/12 06:37:34;;;;;;;;;;;;;;;17.36;51.91;101634.97;5076527;28;1162;-57
2022/10/12 06:40:00;;;;;;;;;;;;;;;17.03;50.96;101634.00;5078727;28;929;-55
2022/10/12 06:42:25;;;;;;;;;;;;;;;17.00;49.67;101637.28;5079420;28;1166;-57
2022/10/12 06:44:51;;;;;;;;;;;;;;;16.90;49.08;101643.47;5061286;28;1902;-58
2022/10/12 06:47:17;;;;;;;;;;;;;;;17.69;51.22;101633.09;5071357;28;2409;-57
2022/10/12 06:49:42;;;;;;;;;;;;;;;17.13;50.94;101633.31;5077776;28;1198;-57
2022/10/12 06:52:08;;;;;;;;;;;;;;;17.00;49.88;101631.78;5078730;28;905;-58
2022/10/12 06:54:33;;;;;;;;;;;;;;;16.94;49.15;101621.78;5078983;28;1162;-58
2022/10/12 06:56:59;;;;;;;;;;;;;;;18.00;50.94;101621.56;5079220;28;1173;-56
2022/10/12 06:59:24;;;;;;;;;;;;;;;17.33;50.96;101629.13;5078744;28;1139;-58
2022/10/12 07:01:49;;;;;;;;;;;;;;;17.13;50.01;101627.81;5062170;28;1159;-58
2022/10/12 07:04:16;;;;;;;;;;;;;;;16.92;49.58;101634.97;5067079;28;1956;-55
2022/10/12 07:06:41;;;;;;;;;;;;;;;16.85;48.84;101631.56;5079001;28;1178;-58
2022/10/12 07:09:06;;;;;;;;;;;;;;;16.83;48.51;101634.56;5078452;28;1067;-58
2022/10/12 07:11:32;;;;;;;;;;;;;;;17.82;50.54;101631.81;5078969;28;1071;-56
2022/10/12 07:13:57;;;;;;;;;;;;;;;17.18;50.75;101641.63;5078749;28;1166;-57
2022/10/12 07:16:23;;;;;;;;;;;;;;;17.94;50.91;101642.72;5078573;28;2352;-56
2022/10/12 07:18:48;;;;;;;;;;;;;;;17.70;51.48;101629.25;5079111;28;1075;-56
2022/10/12 07:21:14;;;;;;;;;;;;;;;17.26;50.79;101638.44;5078524;28;1130;-57
2022/10/12 07:23:39;;;;;;;;;;;;;;;17.18;49.51;101643.53;5078192;28;1087;-57
2022/10/12 07:26:06;;;;;;;;;;;;;;;17.01;49.01;101632.59;5078723;28;1991;-57
2022/10/12 07:28:32;;;;;;;;;;;;;;;18.26;50.72;101639.13;5078775;28;1075;-58
2022/10/12 07:31:03;;;;;;;;;;;;;;;17.49;51.06;101639.22;5071559;28;1103;-58
2022/10/12 07:33:32;;;;;;;;;;;;;;;17.21;50.12;101645.78;5058855;28;1209;-57
2022/10/12 07:35:58;;;;;;;;;;;;;;;17.93;50.83;101641.03;5064234;28;1100;-56
2022/10/12 07:38:23;;;;;;;;;;;;;;;17.26;50.85;101645.81;5077830;28;1366;-57
2022/10/12 07:40:49;;;;;;;;;;;;;;;17.21;49.76;101643.03;5078431;28;1237;-57
2022/10/12 07:43:14;;;;;;;;;;;;;;;17.19;49.65;101648.75;5078409;28;1134;-57
2022/10/12 07:45:40;;;;;;;;;;;;;;;17.72;50.74;101645.50;5078226;28;1914;-57
2022/10/12 07:48:05;;;;;;;;;;;;;;;17.30;50.08;101638.72;5071947;28;2553;-58
2022/10/12 07:50:31;;;;;;;;;;;;;;;17.15;49.26;101642.09;5064468;28;1186;-57
2022/10/12 07:52:56;;;;;;;;;;;;;;;18.02;50.25;101650.50;5078244;28;1134;-57
2022/10/12 07:55:22;;;;;;;;;;;;;;;17.48;50.03;101645.78;5077988;28;1198;-57
2022/10/12 07:57:47;;;;;;;;;;;;;;;17.29;49.51;101645.28;5078175;28;1192;-58
2022/10/12 08:00:13;;;;;;;;;;;;;;;17.22;49.66;101641.91;5077371;28;1195;-56
2022/10/12 08:02:38;;;;;;;;;;;;;;;17.60;50.15;101645.66;5077949;28;1209;-56
2022/10/12 08:05:04;;;;;;;;;;;;;;;17.22;49.69;101648.28;5077765;28;1905;-57
2022/10/12 08:07:29;;;;;;;;;;;;;;;18.40;49.62;101645.81;5078424;28;1154;-55
2022/10/12 08:09:55;;;;;;;;;;;;;;;17.65;50.42;101640.19;5078254;28;1197;-59
2022/10/12 08:12:20;;;;;;;;;;;;;;;17.45;49.66;101644.38;5077474;28;1102;-56
2022/10/12 08:14:45;;;;;;;;;;;;;;;17.22;49.07;101655.66;5077479;28;1337;-55
2022/10/12 08:17:11;;;;;;;;;;;;;;;17.20;48.46;101653.19;5073584;28;2443;-61
2022/10/12 08:19:36;;;;;;;;;;;;;;;18.01;49.38;101646.06;5077352;28;1142;-56
2022/10/12 08:22:02;;;;;;;;;;;;;;;17.48;49.45;101648.53;5077607;28;1111;-56
2022/10/12 08:24:27;;;;;;;;;;;;;;;17.26;48.78;101641.16;5077338;28;1975;-56
2022/10/12 08:26:53;;;;;;;;;;;;;;;17.07;48.52;101645.34;5077116;28;1107;-56
2022/10/12 08:29:18;;;;;;;;;;;;;;;17.16;48.67;101646.53;5077604;28;1183;-56
2022/10/12 08:31:44;;;;;;;;;;;;;;;17.63;49.69;101639.63;5078203;28;1205;-56
2022/10/12 08:34:09;;;;;;;;;;;;;;;17.31;49.46;101654.13;5076944;28;1165;-56
2022/10/12 08:36:34;;;;;;;;;;;;;;;17.16;48.76;101646.53;5068948;28;1087;-57
2022/10/12 08:39:00;;;;;;;;;;;;;;;17.75;49.74;101640.31;5057106;28;1127;-56
2022/10/12 08:41:38;;;;;;;;;;;;;;;17.38;49.27;101641.00;5077138;28;1222;-54
2022/10/12 08:44:23;;;;;;;;;;;;;;;17.17;48.88;101639.13;5076819;28;1990;-52
2022/10/12 08:46:49;;;;;;;;;;;;;;;17.08;48.15;101636.84;5061896;28;1912;-55
2022/10/12 08:49:16;;;;;;;;;;;;;;;17.58;48.75;101634.88;5071522;28;1095;-56
2022/10/12 08:51:45;;;;;;;;;;;;;;;17.61;49.39;101642.66;5074088;28;943;-56
2022/10/12 08:54:13;;;;;;;;;;;;;;;17.12;49.29;101642.63;5076358;28;1107;-56
2022/10/12 08:56:40;;;;;;;;;;;;;;;17.21;48.46;101643.84;5073571;28;1198;-56
2022/10/12 08:59:08;;;;;;;;;;;;;;;17.57;49.73;101643.41;5076810;28;1209;-56
2022/10/12 09:01:37;;;;;;;;;;;;;;;17.42;48.92;101644.91;5077087;28;1131;-57
2022/10/12 09:04:09;;;;;;;;;;;;;;;17.13;48.65;101652.53;5076390;28;1905;-57
2022/10/12 09:06:50;;;;;;;;;;;;;;;18.41;48.97;101643.88;5076500;28;1233;-58
2022/10/12 09:09:19;;;;;;;;;;;;;;;17.44;50.02;101653.72;5063236;28;1175;-56
2022/10/12 09:11:53;;;;;;;;;;;;;;;17.32;49.07;101653.06;5058674;28;1147;-56
2022/10/12 09:14:23;;;;;;;;;;;;;;;17.31;48.11;101654.13;5063273;28;1139;-59
2022/10/12 09:16:49;;;;;;;;;;;;;;;17.69;49.07;101655.09;5072643;28;2685;-59
2022/10/12 09:19:16;;;;;;;;;;;;;;;17.49;49.41;101654.88;5058638;28;1131;-59
2022/10/12 09:21:42;;;;;;;;;;;;;;;17.28;48.69;101652.72;5058569;28;1202;-57
2022/10/12 09:24:10;;;;;;;;;;;;;;;17.17;48.06;101650.13;5074742;28;1909;-56
2022/10/12 09:26:36;;;;;;;;;;;;;;;17.16;47.47;101648.47;5058226;28;1163;-57
2022/10/12 09:29:04;;;;;;;;;;;;;;;17.90;48.62;101650.59;5075837;28;1031;-57
2022/10/12 09:31:48;;;;;;;;;;;;;;;17.23;49.19;101651.84;5074975;28;1416;-56
2022/10/12 09:34:13;;;;;;;;;;;;;;;17.19;47.97;101645.19;5076425;28;1110;-56
2022/10/12 09:36:39;;;;;;;;;;;;;;;17.51;48.80;101652.69;5075863;28;1186;-55
2022/10/12 09:39:05;;;;;;;;;;;;;;;17.55;49.37;101649.16;5076285;28;1107;-53
2022/10/12 09:41:41;;;;;;;;;;;;;;;17.17;49.12;101645.44;5058194;28;1119;-55
2022/10/12 09:44:06;;;;;;;;;;;;;;;17.15;48.30;101649.53;5075958;28;1910;-53
2022/10/12 09:46:39;;;;;;;;;;;;;;;16.99;47.57;101641.09;5056110;28;1858;-53
2022/10/12 09:49:05;;;;;;;;;;;;;;;17.86;48.60;101637.66;5068336;28;1206;-53
2022/10/12 09:51:31;;;;;;;;;;;;;;;17.25;48.97;101638.66;5075311;28;1153;-52
2022/10/12 09:54:02;;;;;;;;;;;;;;;17.09;48.31;101638.47;5076402;28;1233;-50
2022/10/12 09:56:29;;;;;;;;;;;;;;;17.77;48.72;101635.38;5075753;28;1150;-55
2022/10/12 09:59:01;;;;;;;;;;;;;;;17.59;49.21;101633.81;5075246;28;1205;-55
2022/10/12 10:01:27;;;;;;;;;;;;;;;17.26;48.93;101634.81;5076046;28;1062;-58
2022/10/12 10:04:07;;;;;;;;;;;;;;;18.02;48.89;101622.97;5056410;28;1960;-57
2022/10/12 10:06:33;;;;;;;;;;;;;;;17.57;49.35;101633.25;5069180;28;1123;-53
2022/10/12 10:08:59;;;;;;;;;;;;;;;17.27;48.84;101628.25;5075847;28;1178;-56
2022/10/12 10:11:25;;;;;;;;;;;;;;;17.76;47.11;101628.19;5073364;28;1416;-56
2022/10/12 10:13:52;;;;;;;;;;;;;;;19.68;43.06;101614.38;5049324;28;2262;-55
2022/10/12 10:16:18;;;;;;;;;;;;;;;15.20;56.82;101618.66;5067137;28;2059;-56
2022/10/12 10:18:48;;;;;;;;;;;;;;;16.87;50.38;101626.63;5075685;28;2282;-57
2022/10/12 10:21:15;;;;;;;;;;;;;;;17.03;48.53;101611.22;5060174;28;2146;-58
2022/10/12 10:23:40;;;;;;;;;;;;;;;17.32;48.79;101625.56;5052271;28;1915;-58
2022/10/12 10:26:07;;;;;;;;;;;;;;;17.54;49.63;101608.19;5073553;28;2067;-56
2022/10/12 10:28:33;;;;;;;;;;;;;;;17.29;48.74;101617.81;5040591;28;1980;-56
2022/10/12 10:31:01;;;;;;;;;;;;;;;17.41;48.03;101615.75;5071835;28;1477;-52
2022/10/12 10:33:27;;;;;;;;;;;;;;;19.40;43.48;101604.69;5073412;28;2119;-57
2022/10/12 10:36:12;;;;;;;;;;;;;;;15.47;55.59;101609.03;5072873;28;2045;-56
2022/10/12 10:38:48;;;;;;;;;;;;;;;16.94;49.69;101610.81;5067769;28;1853;-56
2022/10/12 10:41:14;;;;;;;;;;;;;;;17.00;48.53;101614.44;5049863;28;2082;-56
2022/10/12 10:43:40;;;;;;;;;;;;;;;16.96;47.93;101613.28;5056799;28;1897;-56
2022/10/12 10:46:05;;;;;;;;;;;;;;;17.82;49.14;101609.81;5064822;28;1910;-56
2022/10/12 10:48:52;;;;;;;;;;;;;;;17.23;49.30;101608.69;5075060;28;1956;-56
2022/10/12 10:51:17;;;;;;;;;;;;;;;17.12;48.25;101598.66;5064732;28;1162;-56
2022/10/12 10:53:43;;;;;;;;;;;;;;;17.08;47.57;101609.34;5053423;28;1108;-56
2022/10/12 10:56:12;;;;;;;;;;;;;;;18.20;48.47;101601.63;5055356;28;1080;-57
2022/10/12 10:58:45;;;;;;;;;;;;;;;17.35;49.48;101600.31;5055190;28;1177;-56
2022/10/12 11:01:18;;;;;;;;;;;;;;;17.27;48.08;101606.25;5037817;28;1072;-56
2022/10/12 11:03:59;;;;;;;;;;;;;;;17.35;48.81;101597.56;5055371;28;1146;-55
2022/10/12 11:06:35;;;;;;;;;;;;;;;17.52;48.95;101591.94;5047001;28;1162;-57
2022/10/12 11:09:02;;;;;;;;;;;;;;;17.26;48.33;101585.34;5057594;28;1170;-56
2022/10/12 11:11:28;;;;;;;;;;;;;;;17.14;47.94;101591.00;5077238;28;1130;-57
2022/10/12 11:13:56;;;;;;;;;;;;;;;17.86;48.51;101582.63;5061147;28;1186;-57
2022/10/12 11:16:30;;;;;;;;;;;;;;;17.26;49.03;101579.84;5078772;28;1193;-57
2022/10/12 11:18:56;;;;;;;;;;;;;;;17.60;48.90;101576.91;5042519;28;2635;-56
2022/10/12 11:21:40;;;;;;;;;;;;;;;17.71;49.26;101586.06;5078513;28;1182;-56
2022/10/12 11:24:35;;;;;;;;;;;;;;;17.41;48.40;101588.25;5078307;28;1901;-50
2022/10/12 11:27:02;;;;;;;;;;;;;;;17.29;47.96;101595.81;5065419;28;1226;-58
2022/10/12 11:29:27;;;;;;;;;;;;;;;18.15;48.47;101590.59;5062594;28;948;-57
2022/10/12 11:31:56;;;;;;;;;;;;;;;17.48;49.03;101581.75;5078421;28;1173;-56
2022/10/12 11:34:21;;;;;;;;;;;;;;;17.27;48.50;101584.28;5064792;28;1150;-56
2022/10/12 11:36:48;;;;;;;;;;;;;;;17.19;47.77;101592.97;5077455;28;1225;-58
2022/10/12 11:39:14;;;;;;;;;;;;;;;17.78;48.16;101586.66;5060760;28;1111;-59
2022/10/12 11:41:46;;;;;;;;;;;;;;;17.55;49.14;101587.84;5060277;28;1151;-56
2022/10/12 11:44:31;;;;;;;;;;;;;;;17.40;48.25;101589.38;5060824;28;1906;-57
2022/10/12 11:47:09;;;;;;;;;;;;;;;18.05;48.54;101586.66;5061987;28;2250;-58
2022/10/12 11:49:36;;;;;;;;;;;;;;;17.43;48.65;101580.59;5072596;28;1189;-54
2022/10/12 11:52:04;;;;;;;;;;;;;;;17.26;48.00;101591.69;5064304;28;1044;-56
2022/10/12 11:54:29;;;;;;;;;;;;;;;17.19;47.68;101579.22;5078005;28;908;-56
2022/10/12 11:56:55;;;;;;;;;;;;;;;17.95;48.31;101581.91;5078168;28;1178;-57
2022/10/12 11:59:26;;;;;;;;;;;;;;;17.44;48.58;101575.91;5077816;28;1138;-56
2022/10/12 12:01:54;;;;;;;;;;;;;;;17.22;47.68;101573.22;5060207;28;1250;-56
2022/10/12 12:04:23;;;;;;;;;;;;;;;17.12;47.35;101584.09;5074975;28;1902;-57
2022/10/12 12:06:51;;;;;;;;;;;;;;;17.09;47.08;101586.25;5078021;28;1210;-56
2022/10/12 12:09:18;;;;;;;;;;;;;;;17.20;47.68;101578.16;5077982;28;861;-56
2022/10/12 12:11:44;;;;;;;;;;;;;;;17.52;48.37;101572.69;5077303;28;980;-56
2022/10/12 12:14:24;;;;;;;;;;;;;;;17.16;48.30;101574.25;5064200;28;1190;-57
2022/10/12 12:17:03;;;;;;;;;;;;;;;17.69;48.26;101569.00;5073144;28;2281;-55
2022/10/12 12:19:36;;;;;;;;;;;;;;;17.54;48.95;101561.44;5061008;28;1447;-55
2022/10/12 12:22:17;;;;;;;;;;;;;;;17.34;48.18;101562.91;5072041;28;1185;-53
2022/10/12 12:24:54;;;;;;;;;;;;;;;17.20;47.84;101564.41;5077644;28;1975;-54
2022/10/12 12:27:21;;;;;;;;;;;;;;;17.03;47.45;101575.50;5077229;28;1091;-57
2022/10/12 12:29:50;;;;;;;;;;;;;;;17.69;47.73;101575.31;5076951;28;890;-57
2022/10/12 12:32:15;;;;;;;;;;;;;;;17.37;48.47;101570.63;5075923;28;1146;-56
2022/10/12 12:34:46;;;;;;;;;;;;;;;17.21;47.88;101568.81;5075669;28;1162;-55
2022/10/12 12:37:12;;;;;;;;;;;;;;;17.10;47.43;101571.44;5059291;28;1178;-55
2022/10/12 12:39:37;;;;;;;;;;;;;;;17.64;47.93;101566.19;5045593;28;1100;-52
2022/10/12 12:42:06;;;;;;;;;;;;;;;17.48;48.56;101565.25;5058838;28;923;-50
2022/10/12 12:44:41;;;;;;;;;;;;;;;17.26;47.82;101563.34;5076213;28;1890;-52
2022/10/12 12:47:10;;;;;;;;;;;;;;;17.04;47.58;101572.47;5073493;28;2519;-55
2022/10/12 12:49:44;;;;;;;;;;;;;;;17.04;47.39;101577.97;5071229;28;1449;-53